Time;durP1;ratioP1;P1;durP2;ratioP2;P2;SDS_P1;SDS_P2;PMS_P1;PMS_P2;Temp;Humidity;BMP_temperature;BMP_pressure;BME280_temperature;BME280_humidity;BME280_pressure;Samples;Min_cycle;Max_cycle;Signal;HPM_P1;HPM_P2
2023/05/05 00:00:08;;;;;;;;;1.00;1.00;;;;;25.28;36.48;101481.81;5078617;27;45432;-78
2023/05/05 00:02:34;;;;;;;;;1.00;1.00;;;;;25.28;36.34;101481.81;5078170;27;45451;-77
2023/05/05 00:04:59;;;;;;;;;1.33;1.00;;;;;25.27;36.34;101488.13;5078552;27;45331;-77
2023/05/05 00:07:24;;;;;;;;;1.00;1.00;;;;;25.16;36.29;101465.47;5078206;28;45344;-77
2023/05/05 00:09:50;;;;;;;;;0.00;0.00;;;;;25.22;36.15;101487.03;5078486;28;45414;-77
2023/05/05 00:12:15;;;;;;;;;1.00;1.00;;;;;25.27;36.10;101493.47;5078704;28;45331;-77
2023/05/05 00:14:41;;;;;;;;;0.33;0.00;;;;;25.16;36.30;101469.97;5078439;28;45278;-77
2023/05/05 00:17:06;;;;;;;;;3.00;1.00;;;;;25.19;36.00;101480.25;5077930;28;46011;-77
2023/05/05 00:19:32;;;;;;;;;3.00;1.00;;;;;25.29;36.12;101503.94;5078348;27;45343;-77
2023/05/05 00:21:57;;;;;;;;;0.00;0.00;;;;;25.27;36.46;101498.78;5078535;28;45335;-77
2023/05/05 00:24:22;;;;;;;;;1.00;1.00;;;;;25.19;36.24;101480.25;5078413;27;45305;-77
2023/05/05 00:26:48;;;;;;;;;1.33;0.67;;;;;25.21;36.73;101477.41;5078130;28;45320;-77
2023/05/05 00:29:13;;;;;;;;;0.33;0.00;;;;;25.25;36.53;101484.84;5078287;28;45261;-77
2023/05/05 00:31:38;;;;;;;;;1.00;1.00;;;;;25.21;36.72;101472.09;5077304;27;45304;-77
2023/05/05 00:34:04;;;;;;;;;0.00;0.00;;;;;25.25;36.54;101482.16;5077944;27;45443;-76
2023/05/05 00:36:30;;;;;;;;;0.00;0.00;;;;;25.25;36.57;101474.19;5077867;27;45875;-77
2023/05/05 00:38:55;;;;;;;;;1.00;0.00;;;;;25.24;36.18;101477.84;5077837;27;45721;-76
2023/05/05 00:41:20;;;;;;;;;0.00;0.00;;;;;25.25;36.40;101479.50;5078103;28;45754;-77
2023/05/05 00:43:46;;;;;;;;;0.33;0.33;;;;;25.24;36.35;101477.03;5077944;28;45333;-77
2023/05/05 00:46:26;;;;;;;;;0.00;0.00;;;;;25.21;36.24;101472.09;5077181;27;46342;-77
2023/05/05 00:48:53;;;;;;;;;1.33;0.00;;;;;25.20;36.31;101473.09;5077916;28;45451;-77
2023/05/05 00:51:20;;;;;;;;;0.00;0.00;;;;;25.24;36.30;101482.38;5077776;27;45356;-76
2023/05/05 00:53:46;;;;;;;;;0.00;0.00;;;;;25.25;36.48;101482.16;5077748;27;45598;-77
2023/05/05 00:56:12;;;;;;;;;1.33;0.67;;;;;25.26;36.48;101485.66;5077494;28;47111;-76
2023/05/05 00:58:40;;;;;;;;;0.00;0.00;;;;;25.22;36.42;101481.69;5077611;28;45407;-77
2023/05/05 01:01:05;;;;;;;;;0.00;0.00;;;;;25.22;36.37;101474.53;5077486;28;45404;-76
2023/05/05 01:03:31;;;;;;;;;0.00;0.00;;;;;25.25;36.47;101479.50;5077719;28;45526;-76
2023/05/05 01:06:27;;;;;;;;;2.00;0.67;;;;;25.25;36.46;101476.00;5077193;27;46470;-77
2023/05/05 01:09:27;;;;;;;;;1.00;1.00;;;;;25.26;36.28;101472.34;5077545;28;45344;-76
2023/05/05 01:11:52;;;;;;;;;0.00;0.00;;;;;25.25;36.61;101473.34;5059409;28;45471;-76
2023/05/05 01:14:26;;;;;;;;;0.00;0.00;;;;;25.25;36.40;101476.84;5077101;28;45403;-77
2023/05/05 01:16:58;;;;;;;;;0.67;0.67;;;;;25.17;36.42;101471.63;5077251;28;46418;-76
2023/05/05 01:19:42;;;;;;;;;1.33;0.33;;;;;25.25;36.63;101478.69;5077324;28;45395;-76
2023/05/05 01:22:12;;;;;;;;;3.00;1.33;;;;;25.17;36.46;101463.63;5077300;27;45371;-77
2023/05/05 01:25:08;;;;;;;;;0.00;0.00;;;;;25.25;36.62;101470.69;5077242;28;45321;-76
2023/05/05 01:27:54;;;;;;;;;0.00;0.00;;;;;25.23;36.65;101464.72;5076974;27;45470;-76
2023/05/05 01:30:31;;;;;;;;;0.00;0.00;;;;;25.23;36.55;101464.72;5077024;28;45477;-76
2023/05/05 01:33:02;;;;;;;;;1.00;1.00;;;;;25.21;36.75;101453.44;5076957;28;45442;-76
2023/05/05 01:35:31;;;;;;;;;0.00;0.00;;;;;25.12;36.67;101442.91;5077005;27;45969;-76
2023/05/05 01:38:18;;;;;;;;;0.33;0.33;;;;;25.23;36.51;101456.75;5076833;28;47550;-76
2023/05/05 01:40:51;;;;;;;;;1.00;1.00;;;;;25.22;36.44;101458.56;5076625;28;45339;-77
2023/05/05 01:43:19;;;;;;;;;0.00;0.00;;;;;25.22;36.67;101468.38;5075545;28;45299;-76
2023/05/05 01:45:46;;;;;;;;;0.00;0.00;;;;;25.23;36.47;101475.38;5076798;28;45375;-77
2023/05/05 01:48:16;;;;;;;;;0.00;0.00;;;;;25.16;36.68;101470.78;5076829;28;45336;-77
2023/05/05 01:50:42;;;;;;;;;0.67;0.67;;;;;25.16;36.52;101465.47;5076516;27;45475;-78
2023/05/05 01:53:09;;;;;;;;;0.67;0.00;;;;;25.14;36.72;101453.34;5076935;27;45406;-76
2023/05/05 01:55:36;;;;;;;;;1.00;1.00;;;;;25.23;36.78;101467.38;5076740;27;45345;-77
2023/05/05 01:58:03;;;;;;;;;0.33;0.33;;;;;25.13;36.77;101457.03;5076185;28;46451;-76
2023/05/05 02:00:30;;;;;;;;;0.67;0.33;;;;;25.18;36.82;101460.81;5076617;27;45222;-77
2023/05/05 02:02:58;;;;;;;;;1.00;1.00;;;;;25.20;36.56;101463.25;5076612;28;45395;-76
2023/05/05 02:05:25;;;;;;;;;0.33;0.33;;;;;25.07;36.53;101448.78;5076649;27;45246;-77
2023/05/05 02:07:53;;;;;;;;;0.00;0.00;;;;;25.23;36.66;101475.38;5076366;28;46137;-76
2023/05/05 02:10:19;;;;;;;;;0.00;0.00;;;;;25.22;36.52;101485.19;5076465;28;45396;-76
2023/05/05 02:12:46;;;;;;;;;2.00;0.00;;;;;25.11;36.73;101453.75;5076397;27;45636;-76
2023/05/05 02:15:14;;;;;;;;;1.33;1.00;;;;;25.11;36.61;101456.41;5076562;27;45332;-77
2023/05/05 02:17:42;;;;;;;;;1.00;1.00;;;;;25.23;36.48;101484.19;5076118;28;46057;-76
2023/05/05 02:20:11;;;;;;;;;1.00;0.00;;;;;25.24;36.63;101485.03;5076271;27;45224;-77
2023/05/05 02:22:36;;;;;;;;;0.00;0.00;;;;;25.23;36.48;101492.19;5076553;28;45415;-77
2023/05/05 02:25:02;;;;;;;;;1.00;0.67;;;;;25.23;36.70;101483.38;5076376;28;45442;-76
2023/05/05 02:27:31;;;;;;;;;0.00;0.00;;;;;25.18;36.80;101473.28;5075766;27;47212;-77
2023/05/05 02:30:00;;;;;;;;;1.00;1.00;;;;;25.22;36.40;101479.03;5076239;28;45326;-76
2023/05/05 02:32:52;;;;;;;;;1.67;0.00;;;;;25.11;36.61;101451.88;5076029;28;45469;-77
2023/05/05 02:35:21;;;;;;;;;0.33;0.33;;;;;25.22;36.73;101473.72;5076206;28;45233;-76
2023/05/05 02:37:58;;;;;;;;;0.00;0.00;;;;;25.23;36.74;101470.06;5075920;28;47106;-76
2023/05/05 02:40:25;;;;;;;;;0.33;0.33;;;;;25.22;36.58;101471.06;5075452;28;45468;-75
2023/05/05 02:42:53;;;;;;;;;0.00;0.00;;;;;25.21;36.81;101467.59;5076133;28;45415;-76
2023/05/05 02:45:21;;;;;;;;;1.00;1.00;;;;;25.12;36.67;101456.22;5075899;27;45405;-77
2023/05/05 02:47:47;;;;;;;;;0.33;0.33;;;;;25.21;37.14;101459.59;5075756;27;45387;-76
2023/05/05 02:50:12;;;;;;;;;0.00;0.00;;;;;25.20;36.82;101471.25;5075948;28;45400;-77
2023/05/05 02:52:38;;;;;;;;;0.00;0.00;;;;;25.06;36.74;101449.78;5076084;27;45482;-77
2023/05/05 02:55:05;;;;;;;;;1.00;0.33;;;;;25.21;36.86;101474.75;5081027;28;45308;-76
2023/05/05 02:57:37;;;;;;;;;0.67;0.67;;;;;25.17;37.18;101472.44;5082413;27;46068;-77
2023/05/05 03:00:08;;;;;;;;;1.00;0.00;;;;;25.18;37.00;101471.44;5082520;27;45364;-76
2023/05/05 03:02:43;;;;;;;;;0.00;0.00;;;;;25.20;36.88;101470.41;5082835;27;45419;-76
2023/05/05 03:05:21;;;;;;;;;0.33;0.00;;;;;25.11;36.90;101456.41;5082554;28;45481;-76
2023/05/05 03:07:49;;;;;;;;;0.00;0.00;;;;;25.21;36.61;101469.41;5082246;28;47269;-76
2023/05/05 03:10:20;;;;;;;;;0.00;0.00;;;;;25.18;36.91;101470.63;5081994;27;45422;-75
2023/05/05 03:12:51;;;;;;;;;0.00;0.00;;;;;25.18;36.92;101473.28;5082622;27;45494;-77
2023/05/05 03:15:18;;;;;;;;;1.00;1.00;;;;;25.09;36.71;101461.91;5082414;28;45468;-76
2023/05/05 03:17:45;;;;;;;;;0.00;0.00;;;;;25.13;36.83;101471.19;5082335;27;47119;-77
2023/05/05 03:20:12;;;;;;;;;0.00;0.00;;;;;25.19;36.67;101480.25;5082264;27;45443;-77
2023/05/05 03:22:38;;;;;;;;;0.00;0.00;;;;;25.22;36.89;101477.22;5082329;27;45395;-76
2023/05/05 03:25:03;;;;;;;;;0.00;0.00;;;;;25.22;36.75;101484.38;5082191;27;45261;-77
2023/05/05 03:27:29;;;;;;;;;0.00;0.00;;;;;25.13;37.03;101473.00;5082011;27;47230;-76
2023/05/05 03:29:55;;;;;;;;;0.33;0.00;;;;;25.11;36.69;101464.38;5082422;28;45340;-76
2023/05/05 03:32:22;;;;;;;;;0.33;0.33;;;;;25.22;36.93;101481.69;5082148;27;45313;-76
2023/05/05 03:34:47;;;;;;;;;0.00;0.00;;;;;25.18;36.90;101476.78;5082395;28;45289;-76
2023/05/05 03:37:13;;;;;;;;;0.00;0.00;;;;;25.11;36.87;101459.88;5082008;28;47223;-76
2023/05/05 03:39:38;;;;;;;;;0.00;0.00;;;;;25.14;36.81;101461.34;5081674;28;45673;-76
2023/05/05 03:42:03;;;;;;;;;0.33;0.33;;;;;25.17;36.67;101471.63;5082314;27;45351;-76
2023/05/05 03:44:29;;;;;;;;;0.00;0.00;;;;;25.18;36.84;101470.63;5082096;27;45491;-77
2023/05/05 03:46:54;;;;;;;;;0.00;0.00;;;;;25.21;37.10;101466.75;5081914;27;46409;-76
2023/05/05 03:49:19;;;;;;;;;1.00;1.00;;;;;25.09;37.17;101447.75;5082012;27;45394;-77
2023/05/05 03:51:46;;;;;;;;;0.33;0.33;;;;;25.19;36.76;101453.63;5082043;27;45428;-77
2023/05/05 03:54:11;;;;;;;;;1.00;1.00;;;;;25.16;36.90;101441.50;5081680;27;45389;-76
2023/05/05 03:56:36;;;;;;;;;0.00;0.00;;;;;25.18;37.09;101457.31;5081675;28;46547;-76
2023/05/05 03:59:02;;;;;;;;;3.00;1.00;;;;;25.15;37.06;101452.34;5081910;27;45438;-76
2023/05/05 04:01:28;;;;;;;;;0.00;0.00;;;;;25.17;37.04;101456.47;5082113;28;45430;-77
2023/05/05 04:03:55;;;;;;;;;2.00;0.00;;;;;25.15;36.87;101447.84;5081964;27;45455;-76
2023/05/05 04:06:20;;;;;;;;;0.00;0.00;;;;;25.11;36.90;101437.78;5078088;27;47058;-77
2023/05/05 04:08:45;;;;;;;;;1.00;1.00;;;;;25.07;37.40;101430.16;5077866;28;45183;-77
2023/05/05 04:11:11;;;;;;;;;1.00;1.00;;;;;25.09;37.11;101431.78;5078515;27;45202;-77
2023/05/05 04:13:36;;;;;;;;;0.00;0.00;;;;;25.15;36.64;101447.03;5078511;27;45444;-76
2023/05/05 04:16:01;;;;;;;;;1.00;1.00;;;;;25.18;36.86;101463.47;5078358;27;47201;-77
2023/05/05 04:18:27;;;;;;;;;0.00;0.00;;;;;25.18;36.95;101470.63;5078362;28;45391;-77
2023/05/05 04:20:52;;;;;;;;;0.00;0.00;;;;;25.20;36.97;101475.75;5078356;27;45895;-77
2023/05/05 04:23:17;;;;;;;;;0.00;0.00;;;;;25.08;36.99;101444.28;5078126;28;45208;-77
2023/05/05 04:25:43;;;;;;;;;0.00;0.00;;;;;25.15;36.64;101452.34;5078035;27;46884;-77
2023/05/05 04:28:08;;;;;;;;;1.00;0.00;;;;;25.20;36.97;101463.25;5078087;28;45364;-76
2023/05/05 04:30:34;;;;;;;;;0.00;0.00;;;;;25.17;36.95;101455.63;5078437;28;45366;-76
2023/05/05 04:32:59;;;;;;;;;0.67;0.67;;;;;25.11;36.90;101443.91;5077912;28;45447;-76
2023/05/05 04:35:25;;;;;;;;;0.67;0.00;;;;;25.20;36.96;101459.78;5077981;28;47416;-76
2023/05/05 04:37:52;;;;;;;;;0.00;0.00;;;;;25.12;37.06;101448.22;5077526;28;45360;-77
2023/05/05 04:40:17;;;;;;;;;0.00;0.00;;;;;25.20;36.82;101457.09;5077735;27;45355;-77
2023/05/05 04:42:42;;;;;;;;;0.00;0.00;;;;;25.12;37.03;101466.84;5077952;28;45352;-77
2023/05/05 04:45:08;;;;;;;;;0.67;0.67;;;;;25.18;37.21;101470.63;5077722;27;45407;-76
2023/05/05 04:47:38;;;;;;;;;0.00;0.00;;;;;25.18;37.02;101463.47;5077826;27;45186;-76
2023/05/05 04:50:04;;;;;;;;;0.00;0.00;;;;;25.11;36.93;101443.09;5078024;28;45415;-77
2023/05/05 04:52:30;;;;;;;;;0.00;0.00;;;;;24.87;36.78;101405.09;5077255;27;45548;-76
2023/05/05 04:54:55;;;;;;;;;0.00;0.00;;;;;25.13;36.81;101460.53;5077550;27;46281;-76
2023/05/05 04:57:20;;;;;;;;;0.00;0.00;;;;;25.15;36.71;101477.16;5077601;27;45450;-76
2023/05/05 04:59:46;;;;;;;;;0.00;0.00;;;;;25.15;37.33;101474.47;5077686;27;45395;-76
2023/05/05 05:02:11;;;;;;;;;0.00;0.00;;;;;25.15;36.82;101478.97;5077735;28;45336;-76
2023/05/05 05:04:36;;;;;;;;;0.00;0.00;;;;;25.15;37.35;101473.66;5077501;28;46174;-77
2023/05/05 05:07:01;;;;;;;;;0.33;0.00;;;;;25.15;37.06;101474.47;5077062;27;45379;-77
2023/05/05 05:09:27;;;;;;;;;0.67;0.67;;;;;24.96;37.01;101450.03;5077515;28;45451;-76
2023/05/05 05:11:52;;;;;;;;;1.00;1.00;;;;;25.03;36.68;101462.66;5077637;28;45356;-77
2023/05/05 05:14:17;;;;;;;;;0.00;0.00;;;;;25.07;36.96;101469.25;5077322;27;46300;-76
2023/05/05 05:16:43;;;;;;;;;0.00;0.00;;;;;25.13;36.98;101470.34;5058868;28;48395;-76
2023/05/05 05:19:08;;;;;;;;;0.00;0.00;;;;;25.17;37.04;101476.94;5077429;28;45471;-76
2023/05/05 05:21:33;;;;;;;;;2.33;1.00;;;;;25.16;37.00;101476.13;5077024;27;45386;-77
2023/05/05 05:23:59;;;;;;;;;0.00;0.00;;;;;25.14;37.08;101483.47;5077413;28;45394;-76
2023/05/05 05:26:24;;;;;;;;;0.00;0.00;;;;;25.12;36.97;101479.34;5077101;28;45383;-78
2023/05/05 05:28:50;;;;;;;;;0.00;0.00;;;;;25.06;36.93;101473.75;5059015;27;45325;-80
2023/05/05 05:31:15;;;;;;;;;0.00;0.00;;;;;25.18;37.10;101489.25;5077270;28;45304;-82
2023/05/05 05:33:40;;;;;;;;;0.00;0.00;;;;;25.21;37.46;101485.41;5075616;28;45360;-74
2023/05/05 05:36:06;;;;;;;;;2.33;1.00;;;;;25.17;37.13;101493.75;5075423;27;55363;-79
2023/05/05 05:38:31;;;;;;;;;1.00;0.33;;;;;25.21;37.05;101509.38;5076904;27;45577;-77
2023/05/05 05:40:56;;;;;;;;;0.00;0.00;;;;;25.19;37.09;101496.22;5076834;27;45324;-77
2023/05/05 05:43:22;;;;;;;;;0.00;0.00;;;;;25.21;37.43;101501.38;5076095;28;46431;-77
2023/05/05 05:45:47;;;;;;;;;1.00;1.00;;;;;25.21;37.61;101507.53;5075828;28;45306;-77
2023/05/05 05:48:12;;;;;;;;;1.67;1.00;;;;;25.20;37.66;101511.19;5076084;27;45272;-75
2023/05/05 05:50:38;;;;;;;;;1.00;1.00;;;;;25.19;37.39;101506.88;5075391;28;45233;-75
2023/05/05 05:53:03;;;;;;;;;0.00;0.00;;;;;25.20;37.67;101518.34;5075077;27;47111;-75
2023/05/05 05:55:28;;;;;;;;;1.00;1.00;;;;;25.12;37.33;101497.97;5057626;28;45391;-75
2023/05/05 05:57:54;;;;;;;;;1.00;1.00;;;;;25.18;37.53;101510.56;5075769;28;45917;-74
2023/05/05 06:00:20;;;;;;;;;2.00;0.33;;;;;25.19;37.70;101520.19;5075955;28;45686;-73
2023/05/05 06:02:45;;;;;;;;;0.33;0.33;;;;;25.19;37.67;101509.53;5073868;27;46047;-73
2023/05/05 06:05:11;;;;;;;;;2.00;0.00;;;;;25.17;37.68;101509.72;5064690;28;45459;-73
2023/05/05 06:07:37;;;;;;;;;0.67;0.67;;;;;24.93;37.67;101479.69;5056232;28;45403;-73
2023/05/05 06:10:03;;;;;;;;;1.00;1.00;;;;;25.22;37.61;101516.31;5038183;28;45318;-72
2023/05/05 06:12:29;;;;;;;;;0.00;0.00;;;;;25.15;37.41;101509.09;5056045;28;46119;-73
2023/05/05 06:14:54;;;;;;;;;1.33;0.00;;;;;25.17;37.67;101504.41;5056102;28;45421;-72
2023/05/05 06:17:20;;;;;;;;;1.00;1.00;;;;;25.26;37.41;101520.28;5056163;28;45289;-73
2023/05/05 06:19:45;;;;;;;;;1.00;1.00;;;;;25.26;37.42;101522.94;5055964;28;45516;-73
2023/05/05 06:22:10;;;;;;;;;1.00;1.00;;;;;25.17;37.62;101504.41;5055639;28;51124;-74
2023/05/05 06:24:36;;;;;;;;;0.67;0.67;;;;;25.25;37.39;101519.44;5073130;28;45457;-75
2023/05/05 06:27:01;;;;;;;;;0.33;0.33;;;;;24.85;37.49;101456.66;5075753;28;45279;-75
2023/05/05 06:29:27;;;;;;;;;1.00;1.00;;;;;25.25;37.51;101530.09;5075342;28;45510;-75
2023/05/05 06:31:53;;;;;;;;;0.00;0.00;;;;;25.26;37.41;101533.59;5075754;28;46417;-74
2023/05/05 06:34:18;;;;;;;;;0.00;0.00;;;;;25.26;37.42;101536.25;5075109;27;45495;-73
2023/05/05 06:36:43;;;;;;;;;0.67;0.67;;;;;25.20;37.76;101527.16;5076029;28;45356;-74
2023/05/05 06:39:09;;;;;;;;;0.00;0.00;;;;;25.18;37.67;101522.03;5075666;28;45464;-74
2023/05/05 06:41:34;;;;;;;;;2.00;1.00;;;;;25.24;37.64;101533.75;5075542;28;46867;-75
2023/05/05 06:43:59;;;;;;;;;0.00;0.00;;;;;25.24;37.63;101532.97;5075833;28;45499;-74
2023/05/05 06:46:25;;;;;;;;;3.00;1.00;;;;;25.18;37.63;101524.72;5075806;28;45614;-74
2023/05/05 06:48:50;;;;;;;;;0.00;0.00;;;;;25.17;37.53;101527.53;5075525;28;45365;-75
2023/05/05 06:51:15;;;;;;;;;2.00;0.33;;;;;25.23;37.64;101536.63;5075812;27;46257;-75
2023/05/05 06:53:41;;;;;;;;;1.00;1.00;;;;;25.15;37.64;101526.91;5075749;28;45467;-74
2023/05/05 06:56:06;;;;;;;;;1.00;1.00;;;;;25.21;37.69;101536.00;5076034;28;45344;-75
2023/05/05 06:58:31;;;;;;;;;0.33;0.33;;;;;25.22;37.69;101537.63;5075788;28;45511;-74
2023/05/05 07:00:57;;;;;;;;;2.00;1.00;;;;;25.14;37.80;101527.91;5075172;28;47130;-74
2023/05/05 07:03:22;;;;;;;;;2.00;2.00;;;;;25.20;37.65;101543.16;5074997;28;45442;-74
2023/05/05 07:05:47;;;;;;;;;1.00;1.00;;;;;25.23;37.53;101540.13;5075365;28;45402;-74
2023/05/05 07:08:13;;;;;;;;;0.33;0.33;;;;;25.28;37.61;101536.91;5075558;28;45478;-75
2023/05/05 07:10:38;;;;;;;;;1.67;1.00;;;;;25.31;37.58;101551.69;5075216;28;46088;-75
2023/05/05 07:13:05;;;;;;;;;1.33;1.00;;;;;25.32;37.64;101542.69;5075182;28;45358;-75
2023/05/05 07:15:31;;;;;;;;;1.00;1.00;;;;;25.32;37.43;101537.38;5075507;28;45277;-74
2023/05/05 07:17:56;;;;;;;;;0.00;0.00;;;;;25.35;37.46;101540.47;5075174;28;45361;-74
2023/05/05 07:20:22;;;;;;;;;0.00;0.00;;;;;25.36;37.57;101535.97;5075151;28;46014;-75
2023/05/05 07:22:47;;;;;;;;;0.00;0.00;;;;;25.38;37.51;101541.94;5074901;28;45499;-75
2023/05/05 07:25:12;;;;;;;;;1.00;1.00;;;;;25.35;37.65;101537.78;5075539;28;45296;-75
2023/05/05 07:27:38;;;;;;;;;2.00;1.00;;;;;25.34;37.53;101530.00;5073684;28;45622;-76
2023/05/05 07:30:04;;;;;;;;;0.00;0.00;;;;;25.45;37.41;101544.69;5074828;28;45284;-77
2023/05/05 07:32:29;;;;;;;;;1.33;0.33;;;;;25.46;37.52;101547.16;5074791;28;45363;-77
2023/05/05 07:34:54;;;;;;;;;1.33;0.33;;;;;25.46;37.05;101547.16;5075435;28;45399;-77
2023/05/05 07:37:20;;;;;;;;;3.33;0.33;;;;;25.38;37.32;101537.44;5075409;28;45401;-77
2023/05/05 07:39:48;;;;;;;;;1.67;0.00;;;;;25.45;37.43;101548.16;5075034;27;45352;-77
2023/05/05 07:42:14;;;;;;;;;0.33;0.33;;;;;25.45;37.56;101545.50;5077846;28;45395;-77
2023/05/05 07:44:39;;;;;;;;;1.00;1.00;;;;;25.45;37.50;101544.69;5078962;28;45340;-77
2023/05/05 07:47:05;;;;;;;;;1.00;0.00;;;;;25.46;37.40;101544.50;5078181;28;45272;-77
2023/05/05 07:49:30;;;;;;;;;0.00;0.00;;;;;25.40;37.65;101529.25;5078535;28;46933;-77
2023/05/05 07:51:55;;;;;;;;;1.33;0.33;;;;;25.46;37.44;101539.16;5078402;27;45256;-76
2023/05/05 07:54:21;;;;;;;;;0.00;0.00;;;;;25.45;37.48;101532.19;5078604;27;45397;-77
2023/05/05 07:56:46;;;;;;;;;2.00;0.33;;;;;25.43;37.72;101526.22;5078767;28;45362;-77
2023/05/05 07:59:11;;;;;;;;;3.00;1.00;;;;;25.41;37.62;101536.22;5078638;27;45273;-77
2023/05/05 08:01:37;;;;;;;;;4.00;1.00;;;;;25.46;37.64;101536.50;5078051;28;45430;-77
2023/05/05 08:04:03;;;;;;;;;0.00;0.00;;;;;25.47;37.41;101537.34;5078566;28;45398;-77
2023/05/05 08:06:30;;;;;;;;;0.00;0.00;;;;;25.43;37.13;101525.38;5078260;28;45504;-76
2023/05/05 08:08:56;;;;;;;;;1.33;0.33;;;;;25.50;37.45;101532.44;5078360;28;46956;-77
2023/05/05 08:11:22;;;;;;;;;1.00;0.67;;;;;25.52;37.49;101529.59;5078323;27;45305;-77
2023/05/05 08:13:47;;;;;;;;;0.33;0.33;;;;;25.54;37.36;101540.06;5078491;27;45450;-77
2023/05/05 08:16:13;;;;;;;;;0.00;0.00;;;;;25.50;37.84;101528.97;5077922;27;45339;-76
2023/05/05 08:18:38;;;;;;;;;0.00;0.00;;;;;25.52;37.42;101526.94;5077497;27;45325;-76
2023/05/05 08:21:08;;;;;;;;;0.67;0.67;;;;;25.59;37.29;101532.34;5078039;27;45374;-76
2023/05/05 08:23:34;;;;;;;;;0.33;0.33;;;;;25.60;37.30;101526.84;5078083;28;45232;-76
2023/05/05 08:26:01;;;;;;;;;0.33;0.33;;;;;25.57;37.73;101529.03;5077957;28;45330;-76
2023/05/05 08:28:26;;;;;;;;;0.67;0.33;;;;;25.65;37.12;101528.94;5077378;28;47178;-76
2023/05/05 08:30:52;;;;;;;;;0.00;0.00;;;;;25.68;37.66;101523.22;5077793;28;45404;-76
2023/05/05 08:33:17;;;;;;;;;1.33;0.33;;;;;25.71;37.29;101514.84;5078148;28;45321;-77
2023/05/05 08:35:42;;;;;;;;;0.33;0.00;;;;;25.73;37.26;101520.00;5077840;27;45578;-76
2023/05/05 08:38:09;;;;;;;;;0.00;0.00;;;;;25.71;36.96;101506.84;5077629;28;46355;-77
2023/05/05 08:40:36;;;;;;;;;0.33;0.00;;;;;25.77;37.18;101505.28;5077328;28;45271;-76
2023/05/05 08:43:02;;;;;;;;;0.00;0.00;;;;;25.78;37.09;101506.94;5077235;28;45318;-77
2023/05/05 08:45:29;;;;;;;;;2.00;0.33;;;;;25.80;37.29;101507.59;5077618;28;45534;-77
2023/05/05 08:47:56;;;;;;;;;0.00;0.00;;;;;25.73;37.48;101482.69;5077391;28;46586;-77
2023/05/05 08:50:25;;;;;;;;;0.33;0.00;;;;;25.84;37.43;101495.50;5077681;28;45407;-77
2023/05/05 08:53:02;;;;;;;;;0.00;0.00;;;;;25.85;37.43;101501.69;5076858;27;45312;-76
2023/05/05 08:55:33;;;;;;;;;0.00;0.00;;;;;25.82;37.19;101491.38;5077730;28;45371;-76
2023/05/05 08:58:02;;;;;;;;;0.33;0.00;;;;;25.84;36.93;101498.19;5077117;28;46001;-77
2023/05/05 09:00:27;;;;;;;;;0.33;0.33;;;;;25.92;37.21;101494.56;5076890;28;45221;-77
2023/05/05 09:02:58;;;;;;;;;1.00;1.00;;;;;25.96;37.33;101489.69;5077372;28;45220;-76
2023/05/05 09:05:24;;;;;;;;;1.00;0.00;;;;;25.94;36.87;101489.06;5076921;28;45370;-77
2023/05/05 09:07:50;;;;;;;;;2.00;0.00;;;;;25.94;36.66;101487.19;5077242;28;46386;-76
2023/05/05 09:10:16;;;;;;;;;0.00;0.00;;;;;25.97;37.11;101496.66;5077157;28;45437;-77
2023/05/05 09:12:42;;;;;;;;;1.00;1.00;;;;;26.01;37.13;101503.25;5058943;28;45342;-76
2023/05/05 09:15:08;;;;;;;;;0.00;0.00;;;;;26.02;37.01;101502.22;5077232;28;46133;-76
2023/05/05 09:17:33;;;;;;;;;1.33;0.00;;;;;25.91;37.14;101482.25;5077157;28;47164;-77
2023/05/05 09:20:06;;;;;;;;;0.00;0.00;;;;;26.01;36.74;101497.94;5092995;27;45373;-77
2023/05/05 09:22:43;;;;;;;;;0.33;0.00;;;;;25.99;37.08;101491.97;5077509;28;45324;-77
2023/05/05 09:25:11;;;;;;;;;0.00;0.00;;;;;26.00;37.03;101500.78;5077004;28;45656;-77
2023/05/05 09:27:42;;;;;;;;;1.00;1.00;;;;;25.93;36.97;101490.06;5076590;28;46486;-77
2023/05/05 09:30:09;;;;;;;;;0.67;0.00;;;;;25.98;37.07;101486.81;5076804;28;45297;-76
2023/05/05 09:32:44;;;;;;;;;0.00;0.00;;;;;26.00;37.36;101485.59;5077027;28;45398;-77
2023/05/05 09:35:10;;;;;;;;;0.00;0.00;;;;;25.97;37.61;101485.97;5076906;28;45482;-77
2023/05/05 09:37:36;;;;;;;;;0.00;0.00;;;;;26.02;37.09;101490.75;5076799;28;46085;-77
2023/05/05 09:40:02;;;;;;;;;0.00;0.00;;;;;25.97;37.16;101480.66;5076536;28;45371;-77
2023/05/05 09:42:27;;;;;;;;;0.00;0.00;;;;;26.01;37.51;101481.09;5076618;28;45435;-77
2023/05/05 09:44:53;;;;;;;;;0.00;0.00;;;;;25.97;37.79;101464.66;5077000;28;45379;-78
2023/05/05 09:47:19;;;;;;;;;0.00;0.00;;;;;26.09;36.91;101485.47;5076760;28;45462;-78
2023/05/05 09:49:56;;;;;;;;;0.00;0.00;;;;;26.00;36.76;101464.28;5076897;28;45381;-79
2023/05/05 09:52:22;;;;;;;;;0.00;0.00;;;;;26.08;36.88;101492.66;5076765;27;45359;-78
2023/05/05 09:54:54;;;;;;;;;0.00;0.00;;;;;26.06;36.93;101492.84;5076541;28;45445;-77
2023/05/05 09:57:30;;;;;;;;;0.00;0.00;;;;;26.05;36.96;101490.34;5076279;28;46755;-77
2023/05/05 10:00:00;;;;;;;;;0.00;0.00;;;;;25.99;37.30;101485.81;5076758;27;45691;-77
2023/05/05 10:02:34;;;;;;;;;2.00;1.00;;;;;25.94;37.16;101489.06;5076529;28;45407;-78
2023/05/05 10:05:14;;;;;;;;;0.67;0.00;;;;;26.00;37.05;101500.78;5075397;27;45489;-78
2023/05/05 10:07:42;;;;;;;;;0.00;0.00;;;;;25.99;37.29;101486.63;5076219;28;45398;-77
2023/05/05 10:10:10;;;;;;;;;0.00;0.00;;;;;26.00;37.27;101490.09;5075992;28;45285;-77
2023/05/05 10:12:36;;;;;;;;;2.00;0.00;;;;;25.99;37.27;101494.63;5076438;28;45379;-77
2023/05/05 10:15:04;;;;;;;;;0.33;0.00;;;;;25.99;37.08;101485.81;5076206;28;45379;-77
2023/05/05 10:17:31;;;;;;;;;0.67;0.00;;;;;26.00;37.12;101492.78;5076167;28;47168;-77
2023/05/05 10:19:59;;;;;;;;;0.00;0.00;;;;;26.00;37.35;101482.94;5076092;28;45377;-77
2023/05/05 10:22:27;;;;;;;;;0.00;0.00;;;;;26.00;37.21;101485.59;5076286;28;45407;-77
2023/05/05 10:25:12;;;;;;;;;0.00;0.00;;;;;25.93;37.09;101480.22;5075344;28;45398;-77
2023/05/05 10:27:42;;;;;;;;;0.00;0.00;;;;;25.99;37.29;101477.81;5075929;28;47138;-78
2023/05/05 10:30:15;;;;;;;;;0.00;0.00;;;;;25.98;37.27;101479.66;5075097;28;45319;-77
2023/05/05 10:32:48;;;;;;;;;0.00;0.00;;;;;25.94;37.49;101473.84;5076146;28;45260;-74
2023/05/05 10:35:22;;;;;;;;;0.00;0.00;;;;;25.97;37.30;101480.66;5076181;28;45638;-73
2023/05/05 10:37:48;;;;;;;;;0.00;0.00;;;;;25.94;37.60;101476.53;5076064;28;45371;-74
2023/05/05 10:40:14;;;;;;;;;0.00;0.00;;;;;25.96;37.36;101474.50;5057177;27;45310;-75
2023/05/05 10:42:40;;;;;;;;;0.00;0.00;;;;;25.93;37.74;101466.91;5076448;28;45408;-75
2023/05/05 10:45:06;;;;;;;;;0.00;0.00;;;;;25.94;37.44;101471.19;5076102;28;45352;-75
2023/05/05 10:47:33;;;;;;;;;0.67;0.33;;;;;25.93;37.13;101463.41;5075687;28;46262;-72
2023/05/05 10:50:17;;;;;;;;;0.00;0.00;;;;;25.90;37.48;101456.63;5075973;28;45383;-79
2023/05/05 10:53:21;;;;;;;;;0.00;0.00;;;;;25.90;37.65;101456.63;5075927;27;45398;-75
2023/05/05 10:55:52;;;;;;;;;1.33;1.00;;;;;25.89;38.87;101451.47;5074325;28;45348;-75
2023/05/05 10:58:47;;;;;;;;;3.00;2.00;;;;;25.83;38.44;101447.75;5075306;27;46130;-75
2023/05/05 11:01:27;;;;;;;;;9.75;5.00;;;;;25.65;38.48;101441.00;5038655;28;45399;-74
2023/05/05 11:04:15;;;;;;;;;5.00;4.67;;;;;25.60;38.80;101451.41;5074416;28;45399;-74
2023/05/05 11:07:06;;;;;;;;;2.00;1.00;;;;;25.47;39.24;101446.75;5075623;28;45470;-75
2023/05/05 11:09:32;;;;;;;;;1.33;1.33;;;;;25.25;38.89;101423.59;5074945;28;47398;-75
2023/05/05 11:12:02;;;;;;;;;1.33;1.33;;;;;25.24;39.84;101421.91;5075507;28;45349;-75
2023/05/05 11:14:27;;;;;;;;;2.00;0.67;;;;;25.28;40.72;101428.53;5075615;28;45328;-73
2023/05/05 11:16:53;;;;;;;;;2.00;1.33;;;;;25.27;40.18;101429.53;5079167;28;45426;-74
2023/05/05 11:19:41;;;;;;;;;0.33;0.33;;;;;25.25;39.80;101428.06;5079013;28;46969;-73
2023/05/05 11:22:06;;;;;;;;;2.67;2.67;;;;;25.20;40.56;101428.66;5079230;27;45261;-74
2023/05/05 11:24:32;;;;;;;;;3.67;3.67;;;;;25.15;40.01;101425.72;5077568;27;45252;-73
2023/05/05 11:26:57;;;;;;;;;3.00;3.00;;;;;25.07;39.41;101414.19;5078421;28;45379;-73